sensor_id;sensor_type;location;lat;lon;timestamp;P1;durP1;ratioP1;P2;durP2;ratioP2
63438;SDS011;49567;48.958;8.294;2022-12-13T00:00:42;31.02;;;18.67;;
63438;SDS011;49567;48.958;8.294;2022-12-13T00:03:07;34.90;;;18.60;;
63438;SDS011;49567;48.958;8.294;2022-12-13T00:05:33;33.92;;;18.55;;
63438;SDS011;49567;48.958;8.294;2022-12-13T00:07:59;34.67;;;17.90;;
63438;SDS011;49567;48.958;8.294;2022-12-13T00:10:25;34.85;;;18.17;;
63438;SDS011;49567;48.958;8.294;2022-12-13T00:12:51;32.55;;;18.67;;
63438;SDS011;49567;48.958;8.294;2022-12-13T00:15:17;36.67;;;19.17;;
63438;SDS011;49567;48.958;8.294;2022-12-13T00:17:43;33.55;;;17.70;;
63438;SDS011;49567;48.958;8.294;2022-12-13T00:20:09;33.65;;;18.50;;
63438;SDS011;49567;48.958;8.294;2022-12-13T00:22:35;36.78;;;19.58;;
63438;SDS011;49567;48.958;8.294;2022-12-13T00:25:01;31.90;;;18.40;;
63438;SDS011;49567;48.958;8.294;2022-12-13T00:27:26;32.93;;;17.90;;
63438;SDS011;49567;48.958;8.294;2022-12-13T00:29:51;28.83;;;16.20;;
63438;SDS011;49567;48.958;8.294;2022-12-13T00:32:17;32.17;;;17.90;;
63438;SDS011;49567;48.958;8.294;2022-12-13T00:34:42;31.43;;;17.67;;
63438;SDS011;49567;48.958;8.294;2022-12-13T00:37:07;31.77;;;18.07;;
63438;SDS011;49567;48.958;8.294;2022-12-13T00:39:32;31.57;;;18.03;;
63438;SDS011;49567;48.958;8.294;2022-12-13T00:41:58;32.78;;;18.00;;
63438;SDS011;49567;48.958;8.294;2022-12-13T00:44:23;33.10;;;17.77;;
63438;SDS011;49567;48.958;8.294;2022-12-13T00:46:48;32.43;;;18.33;;
63438;SDS011;49567;48.958;8.294;2022-12-13T00:49:15;30.23;;;17.88;;
63438;SDS011;49567;48.958;8.294;2022-12-13T00:51:41;31.52;;;17.70;;
63438;SDS011;49567;48.958;8.294;2022-12-13T00:54:07;31.47;;;17.67;;
63438;SDS011;49567;48.958;8.294;2022-12-13T00:56:35;28.70;;;17.43;;
63438;SDS011;49567;48.958;8.294;2022-12-13T00:59:01;29.40;;;17.63;;
63438;SDS011;49567;48.958;8.294;2022-12-13T01:01:28;31.73;;;17.45;;
63438;SDS011;49567;48.958;8.294;2022-12-13T01:03:57;31.85;;;17.77;;
63438;SDS011;49567;48.958;8.294;2022-12-13T01:08:55;35.47;;;17.42;;
63438;SDS011;49567;48.958;8.294;2022-12-13T01:11:20;30.37;;;17.37;;
63438;SDS011;49567;48.958;8.294;2022-12-13T01:13:45;30.47;;;17.47;;
63438;SDS011;49567;48.958;8.294;2022-12-13T01:16:11;32.28;;;17.83;;
63438;SDS011;49567;48.958;8.294;2022-12-13T01:18:37;29.33;;;16.98;;
63438;SDS011;49567;48.958;8.294;2022-12-13T01:21:05;29.52;;;16.15;;
63438;SDS011;49567;48.958;8.294;2022-12-13T01:23:32;29.25;;;15.93;;
63438;SDS011;49567;48.958;8.294;2022-12-13T01:25:58;33.63;;;18.23;;
63438;SDS011;49567;48.958;8.294;2022-12-13T01:28:27;31.00;;;17.45;;
63438;SDS011;49567;48.958;8.294;2022-12-13T01:31:03;29.00;;;16.90;;
63438;SDS011;49567;48.958;8.294;2022-12-13T01:33:30;33.92;;;17.83;;
63438;SDS011;49567;48.958;8.294;2022-12-13T01:35:58;32.40;;;17.67;;
63438;SDS011;49567;48.958;8.294;2022-12-13T01:38:25;33.33;;;17.57;;
63438;SDS011;49567;48.958;8.294;2022-12-13T01:40:51;32.67;;;17.00;;
63438;SDS011;49567;48.958;8.294;2022-12-13T01:43:22;31.30;;;17.55;;
63438;SDS011;49567;48.958;8.294;2022-12-13T01:46:10;29.65;;;17.20;;
63438;SDS011;49567;48.958;8.294;2022-12-13T01:48:38;31.08;;;17.75;;
63438;SDS011;49567;48.958;8.294;2022-12-13T01:51:08;34.20;;;17.50;;
63438;SDS011;49567;48.958;8.294;2022-12-13T01:53:37;29.73;;;16.73;;
63438;SDS011;49567;48.958;8.294;2022-12-13T01:56:07;29.15;;;16.88;;
63438;SDS011;49567;48.958;8.294;2022-12-13T01:58:37;31.00;;;17.40;;
63438;SDS011;49567;48.958;8.294;2022-12-13T02:01:03;29.80;;;16.88;;
63438;SDS011;49567;48.958;8.294;2022-12-13T02:03:28;30.55;;;16.40;;
63438;SDS011;49567;48.958;8.294;2022-12-13T02:08:28;26.38;;;16.60;;
63438;SDS011;49567;48.958;8.294;2022-12-13T02:10:53;31.07;;;17.23;;
63438;SDS011;49567;48.958;8.294;2022-12-13T02:13:20;33.93;;;16.47;;
63438;SDS011;49567;48.958;8.294;2022-12-13T02:15:49;30.63;;;17.33;;
63438;SDS011;49567;48.958;8.294;2022-12-13T02:18:43;29.13;;;17.27;;
63438;SDS011;49567;48.958;8.294;2022-12-13T02:21:20;30.60;;;16.63;;
63438;SDS011;49567;48.958;8.294;2022-12-13T02:26:59;33.47;;;18.20;;
63438;SDS011;49567;48.958;8.294;2022-12-13T02:29:55;32.00;;;18.17;;
63438;SDS011;49567;48.958;8.294;2022-12-13T02:35:33;34.53;;;17.95;;
63438;SDS011;49567;48.958;8.294;2022-12-13T02:38:11;31.77;;;16.92;;
63438;SDS011;49567;48.958;8.294;2022-12-13T02:40:46;30.10;;;17.42;;
63438;SDS011;49567;48.958;8.294;2022-12-13T02:43:24;27.85;;;16.65;;
63438;SDS011;49567;48.958;8.294;2022-12-13T02:45:59;34.45;;;18.60;;
63438;SDS011;49567;48.958;8.294;2022-12-13T02:48:36;33.97;;;18.02;;
63438;SDS011;49567;48.958;8.294;2022-12-13T02:51:04;35.70;;;18.23;;
63438;SDS011;49567;48.958;8.294;2022-12-13T02:53:33;29.33;;;18.23;;
63438;SDS011;49567;48.958;8.294;2022-12-13T02:56:00;32.67;;;18.70;;
63438;SDS011;49567;48.958;8.294;2022-12-13T02:58:27;29.03;;;17.20;;
63438;SDS011;49567;48.958;8.294;2022-12-13T03:09:41;35.95;;;19.17;;
63438;SDS011;49567;48.958;8.294;2022-12-13T03:15:16;33.05;;;18.65;;
63438;SDS011;49567;48.958;8.294;2022-12-13T03:17:51;36.55;;;18.92;;
63438;SDS011;49567;48.958;8.294;2022-12-13T03:20:21;32.92;;;18.88;;
63438;SDS011;49567;48.958;8.294;2022-12-13T03:22:49;36.40;;;18.60;;
63438;SDS011;49567;48.958;8.294;2022-12-13T03:25:16;32.60;;;19.20;;
63438;SDS011;49567;48.958;8.294;2022-12-13T03:27:42;35.67;;;20.48;;
63438;SDS011;49567;48.958;8.294;2022-12-13T03:30:07;36.17;;;19.73;;
63438;SDS011;49567;48.958;8.294;2022-12-13T03:32:33;34.92;;;20.25;;
63438;SDS011;49567;48.958;8.294;2022-12-13T03:34:59;35.03;;;19.80;;
63438;SDS011;49567;48.958;8.294;2022-12-13T03:37:24;35.00;;;20.07;;
63438;SDS011;49567;48.958;8.294;2022-12-13T03:39:49;36.03;;;19.63;;
63438;SDS011;49567;48.958;8.294;2022-12-13T03:42:15;37.97;;;20.60;;
63438;SDS011;49567;48.958;8.294;2022-12-13T03:44:41;36.53;;;20.60;;
63438;SDS011;49567;48.958;8.294;2022-12-13T03:47:07;38.03;;;20.05;;
63438;SDS011;49567;48.958;8.294;2022-12-13T03:49:32;37.00;;;20.27;;
63438;SDS011;49567;48.958;8.294;2022-12-13T03:51:57;41.50;;;20.50;;
63438;SDS011;49567;48.958;8.294;2022-12-13T03:54:23;42.20;;;20.37;;
63438;SDS011;49567;48.958;8.294;2022-12-13T03:56:48;38.43;;;19.87;;
63438;SDS011;49567;48.958;8.294;2022-12-13T03:59:13;42.60;;;22.50;;
63438;SDS011;49567;48.958;8.294;2022-12-13T04:01:38;37.63;;;19.53;;
63438;SDS011;49567;48.958;8.294;2022-12-13T04:04:04;40.00;;;22.13;;
63438;SDS011;49567;48.958;8.294;2022-12-13T04:06:29;38.73;;;21.70;;
63438;SDS011;49567;48.958;8.294;2022-12-13T04:08:54;40.67;;;20.98;;
63438;SDS011;49567;48.958;8.294;2022-12-13T04:11:19;39.87;;;20.67;;
63438;SDS011;49567;48.958;8.294;2022-12-13T04:14:03;38.60;;;20.88;;
63438;SDS011;49567;48.958;8.294;2022-12-13T04:16:28;38.50;;;21.20;;
63438;SDS011;49567;48.958;8.294;2022-12-13T04:18:54;42.00;;;21.63;;
63438;SDS011;49567;48.958;8.294;2022-12-13T04:21:19;36.53;;;20.10;;
63438;SDS011;49567;48.958;8.294;2022-12-13T04:23:44;37.77;;;20.20;;
63438;SDS011;49567;48.958;8.294;2022-12-13T04:26:09;36.72;;;20.13;;
63438;SDS011;49567;48.958;8.294;2022-12-13T04:28:35;35.47;;;21.13;;
63438;SDS011;49567;48.958;8.294;2022-12-13T04:31:00;38.27;;;19.90;;
63438;SDS011;49567;48.958;8.294;2022-12-13T04:33:25;38.77;;;22.23;;
63438;SDS011;49567;48.958;8.294;2022-12-13T04:35:51;40.20;;;21.30;;
63438;SDS011;49567;48.958;8.294;2022-12-13T04:38:16;39.80;;;21.15;;
63438;SDS011;49567;48.958;8.294;2022-12-13T04:40:41;39.17;;;21.20;;
63438;SDS011;49567;48.958;8.294;2022-12-13T04:43:07;43.30;;;23.17;;
63438;SDS011;49567;48.958;8.294;2022-12-13T04:45:32;43.20;;;21.27;;
63438;SDS011;49567;48.958;8.294;2022-12-13T04:47:57;38.20;;;20.97;;
63438;SDS011;49567;48.958;8.294;2022-12-13T04:50:23;36.22;;;20.02;;
63438;SDS011;49567;48.958;8.294;2022-12-13T04:52:48;42.63;;;21.73;;
63438;SDS011;49567;48.958;8.294;2022-12-13T04:55:13;39.90;;;20.83;;
63438;SDS011;49567;48.958;8.294;2022-12-13T04:57:39;38.63;;;20.27;;
63438;SDS011;49567;48.958;8.294;2022-12-13T05:00:05;41.23;;;21.50;;
63438;SDS011;49567;48.958;8.294;2022-12-13T05:02:32;36.42;;;20.13;;
63438;SDS011;49567;48.958;8.294;2022-12-13T05:04:57;38.77;;;21.43;;
63438;SDS011;49567;48.958;8.294;2022-12-13T05:07:24;42.23;;;22.20;;
63438;SDS011;49567;48.958;8.294;2022-12-13T05:09:49;38.15;;;20.00;;
63438;SDS011;49567;48.958;8.294;2022-12-13T05:12:15;42.33;;;21.50;;
63438;SDS011;49567;48.958;8.294;2022-12-13T05:14:43;41.50;;;21.90;;
63438;SDS011;49567;48.958;8.294;2022-12-13T05:17:08;42.13;;;22.30;;
63438;SDS011;49567;48.958;8.294;2022-12-13T05:19:33;39.17;;;20.95;;
63438;SDS011;49567;48.958;8.294;2022-12-13T05:21:59;38.70;;;21.43;;
63438;SDS011;49567;48.958;8.294;2022-12-13T05:24:24;37.97;;;21.23;;
63438;SDS011;49567;48.958;8.294;2022-12-13T05:26:50;40.20;;;20.77;;
63438;SDS011;49567;48.958;8.294;2022-12-13T05:29:15;39.33;;;20.93;;
63438;SDS011;49567;48.958;8.294;2022-12-13T05:31:41;45.93;;;22.27;;
63438;SDS011;49567;48.958;8.294;2022-12-13T05:34:06;38.63;;;21.77;;
63438;SDS011;49567;48.958;8.294;2022-12-13T05:36:31;40.77;;;20.77;;
63438;SDS011;49567;48.958;8.294;2022-12-13T05:38:57;43.80;;;21.13;;
63438;SDS011;49567;48.958;8.294;2022-12-13T05:41:22;40.40;;;21.10;;
63438;SDS011;49567;48.958;8.294;2022-12-13T05:43:49;41.90;;;21.60;;
63438;SDS011;49567;48.958;8.294;2022-12-13T05:46:17;43.08;;;21.25;;
63438;SDS011;49567;48.958;8.294;2022-12-13T05:48:42;41.03;;;22.03;;
63438;SDS011;49567;48.958;8.294;2022-12-13T05:51:08;45.25;;;22.05;;
63438;SDS011;49567;48.958;8.294;2022-12-13T05:53:34;39.42;;;20.63;;
63438;SDS011;49567;48.958;8.294;2022-12-13T05:56:02;39.87;;;20.67;;
63438;SDS011;49567;48.958;8.294;2022-12-13T05:58:28;41.53;;;20.60;;
63438;SDS011;49567;48.958;8.294;2022-12-13T06:00:53;40.63;;;21.27;;
63438;SDS011;49567;48.958;8.294;2022-12-13T06:03:18;39.93;;;21.73;;
63438;SDS011;49567;48.958;8.294;2022-12-13T06:05:44;46.47;;;22.93;;
63438;SDS011;49567;48.958;8.294;2022-12-13T06:08:09;61.85;;;28.55;;
63438;SDS011;49567;48.958;8.294;2022-12-13T06:10:35;71.20;;;31.02;;
63438;SDS011;49567;48.958;8.294;2022-12-13T06:13:02;65.35;;;29.13;;
63438;SDS011;49567;48.958;8.294;2022-12-13T06:15:28;80.75;;;33.85;;
63438;SDS011;49567;48.958;8.294;2022-12-13T06:17:53;76.50;;;34.33;;
63438;SDS011;49567;48.958;8.294;2022-12-13T06:20:18;55.72;;;27.45;;
63438;SDS011;49567;48.958;8.294;2022-12-13T06:22:45;45.57;;;24.17;;
63438;SDS011;49567;48.958;8.294;2022-12-13T06:25:10;36.77;;;21.33;;
63438;SDS011;49567;48.958;8.294;2022-12-13T06:27:35;39.00;;;20.90;;
63438;SDS011;49567;48.958;8.294;2022-12-13T06:30:01;43.17;;;21.83;;
63438;SDS011;49567;48.958;8.294;2022-12-13T06:32:26;41.47;;;22.00;;
63438;SDS011;49567;48.958;8.294;2022-12-13T06:34:51;43.75;;;22.17;;
63438;SDS011;49567;48.958;8.294;2022-12-13T06:37:16;43.30;;;22.10;;
63438;SDS011;49567;48.958;8.294;2022-12-13T06:39:42;40.03;;;21.43;;
63438;SDS011;49567;48.958;8.294;2022-12-13T06:42:12;43.70;;;23.17;;
63438;SDS011;49567;48.958;8.294;2022-12-13T06:44:40;39.88;;;22.40;;
63438;SDS011;49567;48.958;8.294;2022-12-13T06:47:05;38.63;;;20.23;;
63438;SDS011;49567;48.958;8.294;2022-12-13T06:49:32;44.63;;;23.25;;
63438;SDS011;49567;48.958;8.294;2022-12-13T06:51:57;44.57;;;22.60;;
63438;SDS011;49567;48.958;8.294;2022-12-13T06:54:22;37.60;;;21.80;;
63438;SDS011;49567;48.958;8.294;2022-12-13T06:56:48;42.53;;;23.23;;
63438;SDS011;49567;48.958;8.294;2022-12-13T06:59:13;42.70;;;22.17;;
63438;SDS011;49567;48.958;8.294;2022-12-13T07:01:38;46.10;;;22.83;;
63438;SDS011;49567;48.958;8.294;2022-12-13T07:04:04;42.13;;;21.87;;
63438;SDS011;49567;48.958;8.294;2022-12-13T07:06:30;41.83;;;22.15;;
63438;SDS011;49567;48.958;8.294;2022-12-13T07:08:56;41.97;;;21.20;;
63438;SDS011;49567;48.958;8.294;2022-12-13T07:11:26;45.58;;;22.60;;
63438;SDS011;49567;48.958;8.294;2022-12-13T07:13:53;46.20;;;23.67;;
63438;SDS011;49567;48.958;8.294;2022-12-13T07:16:20;44.70;;;21.67;;
63438;SDS011;49567;48.958;8.294;2022-12-13T07:18:47;46.08;;;23.48;;
63438;SDS011;49567;48.958;8.294;2022-12-13T07:21:17;42.77;;;22.93;;
63438;SDS011;49567;48.958;8.294;2022-12-13T07:23:43;44.78;;;23.27;;
63438;SDS011;49567;48.958;8.294;2022-12-13T07:26:08;48.00;;;23.85;;
63438;SDS011;49567;48.958;8.294;2022-12-13T07:28:34;45.53;;;23.65;;
63438;SDS011;49567;48.958;8.294;2022-12-13T07:31:01;51.85;;;24.90;;
63438;SDS011;49567;48.958;8.294;2022-12-13T07:33:28;46.50;;;24.35;;
63438;SDS011;49567;48.958;8.294;2022-12-13T07:36:06;51.35;;;24.80;;
63438;SDS011;49567;48.958;8.294;2022-12-13T07:38:35;43.17;;;22.35;;
63438;SDS011;49567;48.958;8.294;2022-12-13T07:41:01;49.88;;;23.42;;
63438;SDS011;49567;48.958;8.294;2022-12-13T07:43:27;44.40;;;23.38;;
63438;SDS011;49567;48.958;8.294;2022-12-13T07:45:58;47.20;;;23.88;;
63438;SDS011;49567;48.958;8.294;2022-12-13T07:48:25;44.20;;;22.83;;
63438;SDS011;49567;48.958;8.294;2022-12-13T07:50:52;40.70;;;22.17;;
63438;SDS011;49567;48.958;8.294;2022-12-13T07:53:17;41.45;;;21.20;;
63438;SDS011;49567;48.958;8.294;2022-12-13T07:55:43;39.23;;;21.73;;
63438;SDS011;49567;48.958;8.294;2022-12-13T07:58:09;41.70;;;23.25;;
63438;SDS011;49567;48.958;8.294;2022-12-13T08:00:37;43.90;;;22.50;;
63438;SDS011;49567;48.958;8.294;2022-12-13T08:03:04;43.77;;;22.73;;
63438;SDS011;49567;48.958;8.294;2022-12-13T08:05:29;41.15;;;21.95;;
63438;SDS011;49567;48.958;8.294;2022-12-13T08:07:55;40.03;;;21.13;;
63438;SDS011;49567;48.958;8.294;2022-12-13T08:10:21;38.43;;;21.83;;
63438;SDS011;49567;48.958;8.294;2022-12-13T08:12:46;41.03;;;22.43;;
63438;SDS011;49567;48.958;8.294;2022-12-13T08:15:11;43.03;;;22.30;;
63438;SDS011;49567;48.958;8.294;2022-12-13T08:17:37;42.67;;;22.92;;
63438;SDS011;49567;48.958;8.294;2022-12-13T08:20:02;38.97;;;21.80;;
63438;SDS011;49567;48.958;8.294;2022-12-13T08:22:29;40.53;;;22.23;;
63438;SDS011;49567;48.958;8.294;2022-12-13T08:24:54;42.58;;;21.52;;
63438;SDS011;49567;48.958;8.294;2022-12-13T08:27:19;39.63;;;21.50;;
63438;SDS011;49567;48.958;8.294;2022-12-13T08:29:44;45.33;;;21.57;;
63438;SDS011;49567;48.958;8.294;2022-12-13T08:32:10;42.93;;;23.20;;
63438;SDS011;49567;48.958;8.294;2022-12-13T08:34:37;42.63;;;22.17;;
63438;SDS011;49567;48.958;8.294;2022-12-13T08:37:03;44.20;;;22.83;;
63438;SDS011;49567;48.958;8.294;2022-12-13T08:39:28;46.53;;;22.57;;
63438;SDS011;49567;48.958;8.294;2022-12-13T08:42:01;42.67;;;21.88;;
63438;SDS011;49567;48.958;8.294;2022-12-13T08:44:31;40.75;;;21.70;;
63438;SDS011;49567;48.958;8.294;2022-12-13T08:46:56;40.47;;;21.73;;
63438;SDS011;49567;48.958;8.294;2022-12-13T08:49:21;38.30;;;20.30;;
63438;SDS011;49567;48.958;8.294;2022-12-13T08:51:46;39.83;;;20.80;;
63438;SDS011;49567;48.958;8.294;2022-12-13T08:54:12;39.13;;;21.50;;
63438;SDS011;49567;48.958;8.294;2022-12-13T08:56:37;43.50;;;21.53;;
63438;SDS011;49567;48.958;8.294;2022-12-13T08:59:03;38.53;;;21.05;;
63438;SDS011;49567;48.958;8.294;2022-12-13T09:01:28;37.58;;;20.67;;
63438;SDS011;49567;48.958;8.294;2022-12-13T09:03:54;38.70;;;20.80;;
63438;SDS011;49567;48.958;8.294;2022-12-13T09:06:20;37.30;;;20.40;;
63438;SDS011;49567;48.958;8.294;2022-12-13T09:08:45;41.13;;;20.37;;
63438;SDS011;49567;48.958;8.294;2022-12-13T09:11:11;39.47;;;20.60;;
63438;SDS011;49567;48.958;8.294;2022-12-13T09:13:37;40.13;;;20.27;;
63438;SDS011;49567;48.958;8.294;2022-12-13T09:16:04;34.47;;;19.25;;
63438;SDS011;49567;48.958;8.294;2022-12-13T09:18:48;36.75;;;20.80;;
63438;SDS011;49567;48.958;8.294;2022-12-13T09:21:15;38.22;;;19.80;;
63438;SDS011;49567;48.958;8.294;2022-12-13T09:23:41;39.30;;;20.08;;
63438;SDS011;49567;48.958;8.294;2022-12-13T09:26:06;33.80;;;19.10;;
63438;SDS011;49567;48.958;8.294;2022-12-13T09:28:33;34.88;;;19.13;;
63438;SDS011;49567;48.958;8.294;2022-12-13T09:31:04;35.08;;;19.30;;
63438;SDS011;49567;48.958;8.294;2022-12-13T09:33:31;35.42;;;19.10;;
63438;SDS011;49567;48.958;8.294;2022-12-13T09:35:56;42.53;;;22.47;;
63438;SDS011;49567;48.958;8.294;2022-12-13T09:38:22;41.07;;;21.47;;
63438;SDS011;49567;48.958;8.294;2022-12-13T09:40:47;35.70;;;19.27;;
63438;SDS011;49567;48.958;8.294;2022-12-13T09:43:19;32.38;;;19.27;;
63438;SDS011;49567;48.958;8.294;2022-12-13T09:45:48;35.70;;;18.83;;
63438;SDS011;49567;48.958;8.294;2022-12-13T09:48:17;36.40;;;18.23;;
63438;SDS011;49567;48.958;8.294;2022-12-13T09:50:45;37.70;;;19.77;;
63438;SDS011;49567;48.958;8.294;2022-12-13T09:53:12;34.80;;;19.05;;
63438;SDS011;49567;48.958;8.294;2022-12-13T09:55:41;36.00;;;18.40;;
63438;SDS011;49567;48.958;8.294;2022-12-13T09:58:13;34.60;;;18.95;;
63438;SDS011;49567;48.958;8.294;2022-12-13T10:00:45;34.15;;;18.95;;
63438;SDS011;49567;48.958;8.294;2022-12-13T10:03:12;30.33;;;18.13;;
63438;SDS011;49567;48.958;8.294;2022-12-13T10:05:40;32.50;;;17.98;;
63438;SDS011;49567;48.958;8.294;2022-12-13T10:10:39;29.38;;;17.25;;
63438;SDS011;49567;48.958;8.294;2022-12-13T10:15:29;32.27;;;17.97;;
63438;SDS011;49567;48.958;8.294;2022-12-13T10:17:57;31.95;;;17.63;;
63438;SDS011;49567;48.958;8.294;2022-12-13T10:20:26;33.00;;;18.30;;
63438;SDS011;49567;48.958;8.294;2022-12-13T10:22:53;35.17;;;17.75;;
63438;SDS011;49567;48.958;8.294;2022-12-13T10:25:37;28.23;;;15.63;;
63438;SDS011;49567;48.958;8.294;2022-12-13T10:28:11;34.45;;;17.88;;
63438;SDS011;49567;48.958;8.294;2022-12-13T10:30:40;30.25;;;17.38;;
63438;SDS011;49567;48.958;8.294;2022-12-13T10:33:20;29.92;;;16.67;;
63438;SDS011;49567;48.958;8.294;2022-12-13T10:36:02;30.80;;;17.17;;
63438;SDS011;49567;48.958;8.294;2022-12-13T10:38:48;34.13;;;20.42;;
63438;SDS011;49567;48.958;8.294;2022-12-13T10:41:36;29.00;;;16.10;;
63438;SDS011;49567;48.958;8.294;2022-12-13T10:46:52;29.45;;;16.15;;
63438;SDS011;49567;48.958;8.294;2022-12-13T10:49:29;26.80;;;15.50;;
63438;SDS011;49567;48.958;8.294;2022-12-13T10:52:01;33.00;;;17.00;;
63438;SDS011;49567;48.958;8.294;2022-12-13T10:54:34;29.87;;;16.93;;
63438;SDS011;49567;48.958;8.294;2022-12-13T10:57:01;30.40;;;16.92;;
63438;SDS011;49567;48.958;8.294;2022-12-13T10:59:34;28.97;;;15.57;;
63438;SDS011;49567;48.958;8.294;2022-12-13T11:04:51;28.73;;;15.95;;
63438;SDS011;49567;48.958;8.294;2022-12-13T11:07:23;26.77;;;16.67;;
63438;SDS011;49567;48.958;8.294;2022-12-13T11:09:55;28.13;;;16.40;;
63438;SDS011;49567;48.958;8.294;2022-12-13T11:12:22;26.63;;;15.70;;
63438;SDS011;49567;48.958;8.294;2022-12-13T11:14:56;30.05;;;16.77;;
63438;SDS011;49567;48.958;8.294;2022-12-13T11:17:25;29.45;;;15.88;;
63438;SDS011;49567;48.958;8.294;2022-12-13T11:19:55;28.23;;;15.80;;
63438;SDS011;49567;48.958;8.294;2022-12-13T11:22:28;30.55;;;17.02;;
63438;SDS011;49567;48.958;8.294;2022-12-13T11:28:08;32.57;;;15.63;;
63438;SDS011;49567;48.958;8.294;2022-12-13T11:30:40;24.58;;;15.07;;
63438;SDS011;49567;48.958;8.294;2022-12-13T11:33:12;34.35;;;18.40;;
63438;SDS011;49567;48.958;8.294;2022-12-13T11:38:51;27.57;;;15.67;;
63438;SDS011;49567;48.958;8.294;2022-12-13T11:41:21;27.50;;;15.50;;
63438;SDS011;49567;48.958;8.294;2022-12-13T11:46:36;27.77;;;16.15;;
63438;SDS011;49567;48.958;8.294;2022-12-13T11:49:15;27.15;;;15.02;;
63438;SDS011;49567;48.958;8.294;2022-12-13T11:51:49;26.05;;;13.65;;
63438;SDS011;49567;48.958;8.294;2022-12-13T11:54:25;21.33;;;13.35;;
63438;SDS011;49567;48.958;8.294;2022-12-13T11:56:59;25.08;;;13.93;;
63438;SDS011;49567;48.958;8.294;2022-12-13T11:59:44;23.38;;;13.88;;
63438;SDS011;49567;48.958;8.294;2022-12-13T12:02:18;26.02;;;13.45;;
63438;SDS011;49567;48.958;8.294;2022-12-13T12:04:56;27.80;;;16.58;;
63438;SDS011;49567;48.958;8.294;2022-12-13T12:07:26;21.25;;;13.52;;
63438;SDS011;49567;48.958;8.294;2022-12-13T12:09:58;22.33;;;13.27;;
63438;SDS011;49567;48.958;8.294;2022-12-13T12:12:30;26.35;;;12.93;;
63438;SDS011;49567;48.958;8.294;2022-12-13T12:15:11;21.25;;;12.73;;
63438;SDS011;49567;48.958;8.294;2022-12-13T12:17:43;24.58;;;12.98;;
63438;SDS011;49567;48.958;8.294;2022-12-13T12:20:10;24.27;;;13.23;;
63438;SDS011;49567;48.958;8.294;2022-12-13T12:22:50;21.33;;;12.25;;
63438;SDS011;49567;48.958;8.294;2022-12-13T12:25:43;24.27;;;12.40;;
63438;SDS011;49567;48.958;8.294;2022-12-13T12:36:50;22.02;;;12.95;;
63438;SDS011;49567;48.958;8.294;2022-12-13T12:39:30;25.38;;;13.70;;
63438;SDS011;49567;48.958;8.294;2022-12-13T12:47:32;26.52;;;13.45;;
63438;SDS011;49567;48.958;8.294;2022-12-13T12:55:50;24.15;;;13.15;;
63438;SDS011;49567;48.958;8.294;2022-12-13T13:03:44;26.17;;;12.63;;
63438;SDS011;49567;48.958;8.294;2022-12-13T13:06:56;23.77;;;12.52;;
63438;SDS011;49567;48.958;8.294;2022-12-13T13:09:06;21.50;;;12.68;;
63438;SDS011;49567;48.958;8.294;2022-12-13T13:11:34;23.10;;;13.15;;
63438;SDS011;49567;48.958;8.294;2022-12-13T13:14:04;19.90;;;12.25;;
63438;SDS011;49567;48.958;8.294;2022-12-13T13:16:50;25.58;;;12.70;;
63438;SDS011;49567;48.958;8.294;2022-12-13T13:21:42;25.90;;;13.37;;
63438;SDS011;49567;48.958;8.294;2022-12-13T13:24:13;22.02;;;12.93;;
63438;SDS011;49567;48.958;8.294;2022-12-13T13:34:27;27.23;;;13.93;;
63438;SDS011;49567;48.958;8.294;2022-12-13T13:36:55;24.83;;;13.95;;
63438;SDS011;49567;48.958;8.294;2022-12-13T13:42:15;24.60;;;13.85;;
63438;SDS011;49567;48.958;8.294;2022-12-13T13:47:14;29.00;;;14.68;;
63438;SDS011;49567;48.958;8.294;2022-12-13T13:52:31;23.92;;;13.48;;
63438;SDS011;49567;48.958;8.294;2022-12-13T14:09:52;24.15;;;14.73;;
63438;SDS011;49567;48.958;8.294;2022-12-13T14:15:22;24.83;;;14.15;;
63438;SDS011;49567;48.958;8.294;2022-12-13T14:23:34;27.20;;;14.98;;
63438;SDS011;49567;48.958;8.294;2022-12-13T14:28:43;30.50;;;15.38;;
63438;SDS011;49567;48.958;8.294;2022-12-13T14:31:22;26.05;;;14.32;;
63438;SDS011;49567;48.958;8.294;2022-12-13T14:33:54;35.00;;;15.88;;
63438;SDS011;49567;48.958;8.294;2022-12-13T14:36:33;23.05;;;14.10;;
63438;SDS011;49567;48.958;8.294;2022-12-13T14:39:01;26.45;;;14.65;;
63438;SDS011;49567;48.958;8.294;2022-12-13T14:41:29;24.92;;;14.75;;
63438;SDS011;49567;48.958;8.294;2022-12-13T14:43:54;33.70;;;15.13;;
63438;SDS011;49567;48.958;8.294;2022-12-13T14:46:20;25.93;;;14.17;;
63438;SDS011;49567;48.958;8.294;2022-12-13T14:48:46;25.77;;;14.53;;
63438;SDS011;49567;48.958;8.294;2022-12-13T14:51:33;25.77;;;14.45;;
63438;SDS011;49567;48.958;8.294;2022-12-13T14:54:02;28.35;;;14.98;;
63438;SDS011;49567;48.958;8.294;2022-12-13T14:56:29;27.95;;;15.27;;
63438;SDS011;49567;48.958;8.294;2022-12-13T14:58:56;31.98;;;16.42;;
63438;SDS011;49567;48.958;8.294;2022-12-13T15:01:28;36.65;;;16.98;;
63438;SDS011;49567;48.958;8.294;2022-12-13T15:06:41;26.13;;;15.25;;
63438;SDS011;49567;48.958;8.294;2022-12-13T15:09:11;29.02;;;15.25;;
63438;SDS011;49567;48.958;8.294;2022-12-13T15:11:39;26.73;;;15.00;;
63438;SDS011;49567;48.958;8.294;2022-12-13T15:14:05;26.57;;;15.20;;
63438;SDS011;49567;48.958;8.294;2022-12-13T15:16:39;24.40;;;14.60;;
63438;SDS011;49567;48.958;8.294;2022-12-13T15:21:56;29.60;;;15.13;;
63438;SDS011;49567;48.958;8.294;2022-12-13T15:24:28;28.55;;;15.45;;
63438;SDS011;49567;48.958;8.294;2022-12-13T15:26:56;27.02;;;14.88;;
63438;SDS011;49567;48.958;8.294;2022-12-13T15:29:24;29.60;;;16.23;;
63438;SDS011;49567;48.958;8.294;2022-12-13T15:31:52;26.10;;;15.20;;
63438;SDS011;49567;48.958;8.294;2022-12-13T15:36:56;29.85;;;15.57;;
63438;SDS011;49567;48.958;8.294;2022-12-13T15:39:24;27.52;;;15.20;;
63438;SDS011;49567;48.958;8.294;2022-12-13T15:41:50;23.58;;;13.95;;
63438;SDS011;49567;48.958;8.294;2022-12-13T15:44:28;23.67;;;13.68;;
63438;SDS011;49567;48.958;8.294;2022-12-13T15:47:01;27.77;;;15.35;;
63438;SDS011;49567;48.958;8.294;2022-12-13T15:49:33;25.85;;;13.77;;
63438;SDS011;49567;48.958;8.294;2022-12-13T15:52:04;26.05;;;14.13;;
63438;SDS011;49567;48.958;8.294;2022-12-13T15:55:00;28.33;;;14.75;;
63438;SDS011;49567;48.958;8.294;2022-12-13T15:57:48;29.33;;;14.90;;
63438;SDS011;49567;48.958;8.294;2022-12-13T16:00:25;27.70;;;14.32;;
63438;SDS011;49567;48.958;8.294;2022-12-13T16:02:56;25.20;;;14.43;;
63438;SDS011;49567;48.958;8.294;2022-12-13T16:05:28;27.33;;;15.30;;
63438;SDS011;49567;48.958;8.294;2022-12-13T16:07:57;25.23;;;15.40;;
63438;SDS011;49567;48.958;8.294;2022-12-13T16:10:24;25.70;;;14.68;;
63438;SDS011;49567;48.958;8.294;2022-12-13T16:12:51;26.95;;;15.10;;
63438;SDS011;49567;48.958;8.294;2022-12-13T16:15:20;28.85;;;14.90;;
63438;SDS011;49567;48.958;8.294;2022-12-13T16:17:52;26.20;;;14.13;;
63438;SDS011;49567;48.958;8.294;2022-12-13T16:20:30;22.50;;;13.63;;
63438;SDS011;49567;48.958;8.294;2022-12-13T16:22:55;32.57;;;15.50;;
63438;SDS011;49567;48.958;8.294;2022-12-13T16:25:21;29.33;;;15.32;;
63438;SDS011;49567;48.958;8.294;2022-12-13T16:27:47;37.38;;;17.75;;
63438;SDS011;49567;48.958;8.294;2022-12-13T16:32:52;29.27;;;15.48;;